Private Wetterstation Wechselburg
Wetterdaten: Montag, 03.06.2019
Datum Zeit Temp. +2m Bodentemp. Temp.+5cm Temp. Wind Windchill X Diff Temp. Feuchte +2m Feuchte +5cm Luftdruck Regen Wind Richtung Richtung Sonnenschein Taupunkt Windchill Windben
03.06.2019 00:00 18,3 C 18,5 C 17,8 C 17,9 C 17,0 C 0,0 C 81 % 85 % 1017,3 hPa 0,0 l/m 0,0 km/h (0 Bft) NW 315 0 min 15,0 C 17,0 C 0,0 km/h (0 Bft)
03.06.2019 00:05 18,3 C 18,5 C 17,8 C 17,9 C 17,1 C 0,0 C 82 % 85 % 1017,7 hPa 0,0 l/m 0,0 km/h (0 Bft) NW 315 0 min 15,2 C 17,1 C 0,0 km/h (0 Bft)
03.06.2019 00:11 18,1 C 18,5 C 17,7 C 17,8 C 17,1 C 0,0 C 81 % 84 % 1017,7 hPa 0,0 l/m 0,0 km/h (0 Bft) N 0 0 min 14,8 C 17,1 C 0,0 km/h (0 Bft)
03.06.2019 00:26 17,9 C 18,5 C 17,4 C 17,6 C 17,1 C 0,0 C 82 % 84 % 1017,0 hPa 0,0 l/m 0,0 km/h (0 Bft) NW 315 0 min 14,8 C 17,1 C 0,0 km/h (0 Bft)
03.06.2019 00:40 17,6 C 18,5 C 17,5 C 17,4 C 16,9 C 0,0 C 82 % 83 % 1017,0 hPa 0,0 l/m 0,0 km/h (0 Bft) NW 315 0 min 14,5 C 16,9 C 0,0 km/h (0 Bft)
03.06.2019 00:45 17,6 C 18,5 C 17,5 C 17,4 C 16,9 C 0,0 C 82 % 84 % 1016,8 hPa 0,0 l/m 0,0 km/h (0 Bft) NW 315 0 min 14,5 C 16,9 C 0,0 km/h (0 Bft)
03.06.2019 00:50 17,6 C 18,5 C 17,3 C 17,4 C 16,9 C 0,0 C 82 % 84 % 1016,8 hPa 0,0 l/m 0,0 km/h (0 Bft) O-NO 67 0 min 14,5 C 16,9 C 0,0 km/h (0 Bft)
03.06.2019 00:55 17,5 C 18,5 C 17,1 C 17,3 C 16,9 C 0,0 C 82 % 84 % 1016,8 hPa 0,0 l/m 0,0 km/h (0 Bft) NO 45 0 min 14,4 C 16,9 C 0,0 km/h (0 Bft)
03.06.2019 01:00 17,5 C 18,5 C 17,1 C 17,2 C 16,7 C 0,0 C 82 % 84 % 1016,8 hPa 0,0 l/m 0,0 km/h (0 Bft) NW 315 0 min 14,4 C 16,7 C 0,0 km/h (0 Bft)
03.06.2019 01:05 17,4 C 18,5 C 17,0 C 17,1 C 16,5 C 0,0 C 82 % 84 % 1017,1 hPa 0,0 l/m 0,0 km/h (0 Bft) NW 315 0 min 14,3 C 16,5 C 0,0 km/h (0 Bft)
03.06.2019 01:10 17,4 C 18,5 C 16,9 C 17,0 C 16,3 C 0,0 C 82 % 85 % 1017,1 hPa 0,0 l/m 0,0 km/h (0 Bft) NW 315 0 min 14,3 C 16,3 C 0,0 km/h (0 Bft)
03.06.2019 01:15 17,3 C 18,5 C 16,9 C 16,9 C 16,2 C 0,0 C 83 % 85 % 1017,1 hPa 0,0 l/m 0,0 km/h (0 Bft) NO 45 0 min 14,4 C 16,2 C 0,0 km/h (0 Bft)
03.06.2019 01:20 17,2 C 18,5 C 16,7 C 16,9 C 16,3 C 0,0 C 82 % 85 % 1017,1 hPa 0,0 l/m 0,0 km/h (0 Bft) SW 225 0 min 14,1 C 16,3 C 0,0 km/h (0 Bft)
03.06.2019 01:25 17,3 C 18,5 C 16,6 C 16,9 C 16,1 C 0,0 C 83 % 85 % 1017,1 hPa 0,0 l/m 0,0 km/h (0 Bft) N-NO 22 0 min 14,4 C 16,1 C 0,0 km/h (0 Bft)
03.06.2019 01:30 17,1 C 18,5 C 16,6 C 16,7 C 16,0 C 0,0 C 83 % 85 % 1017,1 hPa 0,0 l/m 0,0 km/h (0 Bft) O-NO 67 0 min 14,2 C 16,0 C 0,0 km/h (0 Bft)
03.06.2019 01:35 17,1 C 18,5 C 16,5 C 16,8 C 16,1 C 0,0 C 83 % 86 % 1017,1 hPa 0,0 l/m 0,0 km/h (0 Bft) NO 45 0 min 14,2 C 16,1 C 0,0 km/h (0 Bft)
03.06.2019 01:40 17,0 C 18,5 C 16,5 C 16,7 C 16,1 C 0,0 C 83 % 86 % 1017,1 hPa 0,0 l/m 0,0 km/h (0 Bft) NO 45 0 min 14,1 C 16,1 C 0,0 km/h (0 Bft)
03.06.2019 01:45 17,1 C 18,5 C 16,4 C 16,8 C 16,1 C 0,0 C 83 % 86 % 1017,0 hPa 0,0 l/m 0,0 km/h (0 Bft) W 270 0 min 14,2 C 16,1 C 0,0 km/h (0 Bft)
03.06.2019 01:50 16,9 C 18,4 C 16,3 C 16,6 C 15,9 C 0,0 C 83 % 86 % 1017,0 hPa 0,0 l/m 0,0 km/h (0 Bft) NW 315 0 min 14,0 C 15,9 C 0,0 km/h (0 Bft)
03.06.2019 01:55 16,8 C 18,4 C 16,2 C 16,4 C 15,6 C 0,0 C 83 % 86 % 1017,0 hPa 0,0 l/m 0,0 km/h (0 Bft) SW 225 0 min 13,9 C 15,6 C 0,0 km/h (0 Bft)
03.06.2019 02:00 16,7 C 18,4 C 16,1 C 16,3 C 15,4 C 0,0 C 83 % 86 % 1017,0 hPa 0,0 l/m 0,0 km/h (0 Bft) NW 315 0 min 13,8 C 15,4 C 0,0 km/h (0 Bft)
03.06.2019 02:05 16,7 C 18,4 C 16,1 C 16,2 C 15,3 C 0,0 C 83 % 86 % 1016,6 hPa 0,0 l/m 0,0 km/h (0 Bft) NW 315 0 min 13,8 C 15,3 C 0,0 km/h (0 Bft)
03.06.2019 02:11 16,5 C 18,4 C 16,1 C 16,0 C 15,1 C 0,0 C 83 % 86 % 1016,6 hPa 0,0 l/m 0,0 km/h (0 Bft) N 0 0 min 13,6 C 15,1 C 0,0 km/h (0 Bft)
03.06.2019 02:27 16,3 C 18,4 C 15,9 C 15,9 C 15,1 C 0,0 C 83 % 86 % 1016,8 hPa 0,0 l/m 0,0 km/h (0 Bft) O-NO 67 0 min 13,4 C 15,1 C 0,0 km/h (0 Bft)
03.06.2019 02:35 16,1 C 18,4 C 15,8 C 15,8 C 15,1 C 0,0 C 84 % 87 % 1016,8 hPa 0,0 l/m 0,0 km/h (0 Bft) NO 45 0 min 13,4 C 15,1 C 0,0 km/h (0 Bft)
03.06.2019 02:40 16,1 C 18,4 C 15,8 C 15,7 C 15,0 C 0,0 C 84 % 87 % 1016,8 hPa 0,0 l/m 0,0 km/h (0 Bft) N-NO 22 0 min 13,4 C 15,0 C 0,0 km/h (0 Bft)
03.06.2019 02:45 16,0 C 18,4 C 15,7 C 15,6 C 14,8 C 0,0 C 84 % 87 % 1016,7 hPa 0,0 l/m 0,0 km/h (0 Bft) N-NW 337 0 min 13,3 C 14,8 C 0,0 km/h (0 Bft)
03.06.2019 02:50 16,0 C 18,4 C 15,7 C 15,6 C 14,8 C 0,0 C 84 % 87 % 1016,7 hPa 0,0 l/m 0,0 km/h (0 Bft) NO 45 0 min 13,3 C 14,8 C 0,0 km/h (0 Bft)
03.06.2019 02:55 15,9 C 18,3 C 15,6 C 15,5 C 14,8 C 0,0 C 84 % 87 % 1016,7 hPa 0,0 l/m 0,0 km/h (0 Bft) N-NO 22 0 min 13,2 C 14,8 C 0,0 km/h (0 Bft)
03.06.2019 03:00 15,9 C 18,3 C 15,5 C 15,5 C 14,7 C 0,0 C 84 % 87 % 1016,7 hPa 0,0 l/m 0,0 km/h (0 Bft) W 270 0 min 13,2 C 14,7 C 0,0 km/h (0 Bft)
03.06.2019 03:05 15,9 C 18,3 C 15,5 C 15,5 C 14,6 C 0,0 C 84 % 87 % 1016,1 hPa 0,0 l/m 0,0 km/h (0 Bft) NO 45 0 min 13,2 C 14,6 C 0,0 km/h (0 Bft)
03.06.2019 03:10 15,8 C 18,4 C 15,4 C 15,4 C 14,6 C 0,0 C 85 % 87 % 1016,1 hPa 0,0 l/m 0,0 km/h (0 Bft) NO 45 0 min 13,3 C 14,6 C 0,0 km/h (0 Bft)
03.06.2019 03:15 15,7 C 18,3 C 15,3 C 15,4 C 14,8 C 0,0 C 85 % 87 % 1016,1 hPa 0,0 l/m 0,0 km/h (0 Bft) NO 45 0 min 13,2 C 14,8 C 0,0 km/h (0 Bft)
03.06.2019 03:20 15,7 C 18,4 C 15,3 C 15,4 C 14,8 C 0,0 C 85 % 87 % 1016,1 hPa 0,0 l/m 0,0 km/h (0 Bft) NO 45 0 min 13,2 C 14,8 C 0,0 km/h (0 Bft)
03.06.2019 03:25 15,7 C 18,4 C 15,3 C 15,4 C 14,8 C 0,0 C 85 % 88 % 1016,4 hPa 0,0 l/m 0,0 km/h (0 Bft) NO 45 0 min 13,2 C 14,8 C 0,0 km/h (0 Bft)
03.06.2019 03:30 15,6 C 18,4 C 15,3 C 15,3 C 14,8 C 0,0 C 85 % 88 % 1016,4 hPa 0,0 l/m 0,0 km/h (0 Bft) O-NO 67 0 min 13,1 C 14,8 C 0,0 km/h (0 Bft)
03.06.2019 03:35 15,7 C 18,3 C 15,2 C 15,4 C 14,7 C 0,0 C 85 % 88 % 1016,4 hPa 0,0 l/m 0,0 km/h (0 Bft) W-SW 247 0 min 13,2 C 14,7 C 0,0 km/h (0 Bft)
03.06.2019 03:40 15,6 C 18,3 C 15,1 C 15,2 C 14,5 C 0,0 C 85 % 87 % 1016,4 hPa 0,0 l/m 0,0 km/h (0 Bft) W 270 0 min 13,1 C 14,5 C 0,0 km/h (0 Bft)
03.06.2019 03:45 15,4 C 18,3 C 15,0 C 15,0 C 14,2 C 0,0 C 85 % 87 % 1016,8 hPa 0,0 l/m 0,0 km/h (0 Bft) NW 315 0 min 12,9 C 14,2 C 0,0 km/h (0 Bft)
03.06.2019 03:50 15,3 C 18,3 C 14,9 C 14,9 C 14,1 C 0,0 C 85 % 88 % 1016,8 hPa 0,0 l/m 0,0 km/h (0 Bft) W 270 0 min 12,8 C 14,1 C 0,0 km/h (0 Bft)
03.06.2019 03:55 15,2 C 18,3 C 14,8 C 14,8 C 13,9 C 0,0 C 85 % 88 % 1016,8 hPa 0,0 l/m 0,0 km/h (0 Bft) S 180 0 min 12,7 C 13,9 C 0,0 km/h (0 Bft)
03.06.2019 04:00 15,2 C 18,2 C 14,8 C 14,7 C 13,8 C 0,0 C 85 % 88 % 1016,8 hPa 0,0 l/m 0,0 km/h (0 Bft) NW 315 0 min 12,7 C 13,8 C 0,0 km/h (0 Bft)
03.06.2019 04:05 15,1 C 18,2 C 14,8 C 14,7 C 13,8 C 0,0 C 85 % 88 % 1016,5 hPa 0,0 l/m 0,0 km/h (0 Bft) NW 315 0 min 12,6 C 13,8 C 0,0 km/h (0 Bft)
03.06.2019 04:11 15,1 C 18,3 C 14,7 C 14,7 C 13,8 C 0,0 C 85 % 88 % 1016,5 hPa 0,0 l/m 0,0 km/h (0 Bft) N 0 0 min 12,6 C 13,8 C 0,0 km/h (0 Bft)
03.06.2019 04:27 14,9 C 18,3 C 14,6 C 14,5 C 13,6 C 0,0 C 85 % 89 % 1016,3 hPa 0,0 l/m 0,0 km/h (0 Bft) N-NO 22 0 min 12,4 C 13,6 C 0,0 km/h (0 Bft)
03.06.2019 04:35 14,7 C 18,2 C 14,5 C 14,3 C 13,5 C 0,0 C 86 % 89 % 1016,3 hPa 0,0 l/m 0,0 km/h (0 Bft) N 360 0 min 12,4 C 13,5 C 0,0 km/h (0 Bft)
03.06.2019 04:40 14,6 C 18,2 C 14,5 C 14,2 C 13,4 C 0,0 C 86 % 89 % 1016,3 hPa 0,0 l/m 0,0 km/h (0 Bft) NW 315 0 min 12,3 C 13,4 C 0,0 km/h (0 Bft)
03.06.2019 04:45 14,7 C 18,2 C 14,5 C 14,3 C 13,4 C 0,0 C 86 % 89 % 1016,4 hPa 0,0 l/m 0,0 km/h (0 Bft) N-NO 22 0 min 12,4 C 13,4 C 0,0 km/h (0 Bft)
03.06.2019 04:50 14,5 C 18,2 C 14,4 C 14,1 C 13,4 C 0,0 C 86 % 89 % 1016,4 hPa 0,0 l/m 0,0 km/h (0 Bft) N-NO 22 0 min 12,2 C 13,4 C 0,0 km/h (0 Bft)
03.06.2019 04:55 14,4 C 18,1 C 14,3 C 14,0 C 13,3 C 0,0 C 86 % 89 % 1016,4 hPa 0,0 l/m 0,0 km/h (0 Bft) SW 225 0 min 12,1 C 13,3 C 0,0 km/h (0 Bft)
03.06.2019 05:00 14,5 C 18,0 C 14,2 C 14,1 C 13,2 C 0,0 C 86 % 89 % 1016,4 hPa 0,0 l/m 0,0 km/h (0 Bft) W 270 0 min 12,2 C 13,2 C 0,0 km/h (0 Bft)
03.06.2019 05:05 14,3 C 18,0 C 14,1 C 13,9 C 13,1 C 0,0 C 86 % 89 % 1016,4 hPa 0,0 l/m 0,0 km/h (0 Bft) W-SW 247 0 min 12,0 C 13,1 C 0,0 km/h (0 Bft)
03.06.2019 05:10 14,3 C 18,0 C 14,1 C 13,9 C 13,0 C 0,0 C 86 % 89 % 1016,4 hPa 0,0 l/m 0,0 km/h (0 Bft) W-SW 247 0 min 12,0 C 13,0 C 0,0 km/h (0 Bft)
03.06.2019 05:15 14,3 C 18,1 C 14,0 C 13,9 C 13,0 C 0,0 C 86 % 89 % 1016,4 hPa 0,0 l/m 0,0 km/h (0 Bft) W-SW 247 0 min 12,0 C 13,0 C 0,0 km/h (0 Bft)
03.06.2019 05:20 14,2 C 18,1 C 14,1 C 13,8 C 13,0 C 0,0 C 86 % 89 % 1016,4 hPa 0,0 l/m 0,0 km/h (0 Bft) N-NO 22 0 min 11,9 C 13,0 C 0,0 km/h (0 Bft)
03.06.2019 05:25 14,1 C 18,1 C 14,0 C 13,7 C 13,0 C 0,0 C 86 % 89 % 1016,9 hPa 0,0 l/m 0,0 km/h (0 Bft) NO 45 0 min 11,8 C 13,0 C 0,0 km/h (0 Bft)
03.06.2019 05:30 14,0 C 18,0 C 14,0 C 13,7 C 13,0 C 0,0 C 86 % 89 % 1016,9 hPa 0,0 l/m 0,0 km/h (0 Bft) S-SW 202 0 min 11,7 C 13,0 C 0,0 km/h (0 Bft)
03.06.2019 05:35 14,0 C 18,0 C 13,9 C 13,7 C 13,0 C 0,0 C 86 % 89 % 1016,9 hPa 0,0 l/m 0,0 km/h (0 Bft) W 270 0 min 11,7 C 13,0 C 0,0 km/h (0 Bft)
03.06.2019 05:40 14,0 C 17,9 C 13,9 C 13,7 C 13,0 C 0,0 C 86 % 89 % 1016,9 hPa 0,0 l/m 0,0 km/h (0 Bft) W-NW 292 0 min 11,7 C 13,0 C 0,0 km/h (0 Bft)
03.06.2019 05:45 14,0 C 18,0 C 13,9 C 13,7 C 13,0 C 0,0 C 86 % 89 % 1016,4 hPa 0,0 l/m 0,0 km/h (0 Bft) NW 315 0 min 11,7 C 13,0 C 0,0 km/h (0 Bft)
03.06.2019 05:50 13,9 C 17,9 C 14,0 C 13,6 C 13,0 C 0,0 C 86 % 89 % 1016,4 hPa 0,0 l/m 0,0 km/h (0 Bft) NW 315 0 min 11,6 C 13,0 C 0,0 km/h (0 Bft)
03.06.2019 05:55 13,9 C 17,9 C 14,0 C 13,6 C 13,1 C 0,0 C 86 % 89 % 1016,4 hPa 0,0 l/m 0,0 km/h (0 Bft) SW 225 0 min 11,6 C 13,1 C 0,0 km/h (0 Bft)
03.06.2019 06:00 13,9 C 17,9 C 14,0 C 13,7 C 13,2 C 0,0 C 86 % 89 % 1016,4 hPa 0,0 l/m 0,0 km/h (0 Bft) SW 225 0 min 11,6 C 13,2 C 0,0 km/h (0 Bft)
03.06.2019 06:05 13,9 C 17,9 C 14,0 C 13,7 C 13,2 C 0,0 C 87 % 89 % 1016,8 hPa 0,0 l/m 0,0 km/h (0 Bft) W-SW 247 0 min 11,8 C 13,2 C 0,0 km/h (0 Bft)
03.06.2019 06:11 13,9 C 17,9 C 14,0 C 13,7 C 13,2 C 0,0 C 86 % 89 % 1016,8 hPa 0,0 l/m 0,0 km/h (0 Bft) N 0 0 min 11,6 C 13,2 C 0,0 km/h (0 Bft)
03.06.2019 06:27 13,9 C 17,8 C 14,2 C 13,8 C 13,7 C 0,0 C 87 % 89 % 1016,8 hPa 0,0 l/m 0,0 km/h (0 Bft) N-NO 22 0 min 11,8 C 13,7 C 0,0 km/h (0 Bft)
03.06.2019 06:35 14,0 C 17,7 C 14,4 C 14,1 C 14,1 C 0,1 C 87 % 89 % 1016,8 hPa 0,0 l/m 0,0 km/h (0 Bft) W 270 0 min 11,9 C 14,1 C 0,0 km/h (0 Bft)
03.06.2019 06:40 14,1 C 17,6 C 14,4 C 14,2 C 14,2 C 0,1 C 87 % 89 % 1016,8 hPa 0,0 l/m 0,0 km/h (0 Bft) SW 225 0 min 12,0 C 14,2 C 0,0 km/h (0 Bft)
03.06.2019 06:45 14,1 C 17,6 C 14,7 C 14,4 C 14,4 C 0,3 C 87 % 90 % 1016,7 hPa 0,0 l/m 0,0 km/h (0 Bft) SW 225 0 min 12,0 C 14,4 C 0,0 km/h (0 Bft)
03.06.2019 06:50 14,0 C 17,6 C 15,0 C 14,6 C 14,6 C 0,6 C 87 % 90 % 1016,7 hPa 0,0 l/m 0,0 km/h (0 Bft) SW 225 0 min 11,9 C 14,6 C 0,0 km/h (0 Bft)
03.06.2019 06:55 14,2 C 17,6 C 15,4 C 15,1 C 15,1 C 0,9 C 87 % 89 % 1016,7 hPa 0,0 l/m 0,0 km/h (0 Bft) S 180 0 min 12,1 C 15,1 C 0,0 km/h (0 Bft)
03.06.2019 07:00 14,2 C 17,6 C 15,6 C 16,2 C 16,2 C 2,0 C 87 % 89 % 1016,7 hPa 0,0 l/m 0,0 km/h (0 Bft) NO 45 0 min 12,1 C 16,2 C 0,0 km/h (0 Bft)
03.06.2019 07:05 14,2 C 17,6 C 16,0 C 21,0 C 21,0 C 6,8 C 87 % 89 % 1016,8 hPa 0,0 l/m 0,0 km/h (0 Bft) N-NO 22 5 min 12,1 C 21,0 C 0,0 km/h (0 Bft)
03.06.2019 07:10 14,3 C 17,5 C 16,3 C 23,8 C 23,8 C 9,5 C 87 % 88 % 1016,8 hPa 0,0 l/m 0,0 km/h (0 Bft) O-NO 67 5 min 12,2 C 23,8 C 0,0 km/h (0 Bft)
03.06.2019 07:15 14,5 C 17,5 C 16,6 C 26,3 C 26,3 C 11,8 C 87 % 88 % 1016,8 hPa 0,0 l/m 0,0 km/h (0 Bft) S-SW 202 5 min 12,4 C 26,3 C 0,0 km/h (0 Bft)
03.06.2019 07:20 14,9 C 17,5 C 16,8 C 27,5 C 27,5 C 12,6 C 87 % 87 % 1016,8 hPa 0,0 l/m 0,0 km/h (0 Bft) W 270 5 min 12,8 C 27,5 C 0,0 km/h (0 Bft)
03.06.2019 07:25 15,2 C 17,5 C 17,1 C 28,6 C 28,6 C 13,4 C 87 % 86 % 1016,9 hPa 0,0 l/m 0,0 km/h (0 Bft) W 270 5 min 13,0 C 28,6 C 0,0 km/h (0 Bft)
03.06.2019 07:30 16,0 C 17,5 C 17,3 C 28,9 C 28,9 C 12,9 C 87 % 86 % 1016,9 hPa 0,0 l/m 0,0 km/h (0 Bft) W 270 5 min 13,8 C 28,9 C 0,0 km/h (0 Bft)
03.06.2019 07:35 16,9 C 17,5 C 17,7 C 29,9 C 29,9 C 13,0 C 87 % 85 % 1016,9 hPa 0,0 l/m 0,0 km/h (0 Bft) W 270 5 min 14,7 C 29,9 C 0,0 km/h (0 Bft)
03.06.2019 07:40 17,7 C 17,5 C 17,8 C 30,6 C 30,6 C 12,9 C 87 % 85 % 1016,9 hPa 0,0 l/m 0,0 km/h (0 Bft) W 270 5 min 15,5 C 30,6 C 0,0 km/h (0 Bft)
03.06.2019 07:45 18,3 C 17,5 C 17,8 C 31,7 C 31,7 C 13,4 C 87 % 84 % 1016,7 hPa 0,0 l/m 0,0 km/h (0 Bft) W 270 5 min 16,1 C 31,7 C 0,0 km/h (0 Bft)
03.06.2019 07:50 19,2 C 17,4 C 17,9 C 31,8 C 31,8 C 12,6 C 85 % 84 % 1016,7 hPa 0,0 l/m 0,0 km/h (0 Bft) N-NO 22 5 min 16,6 C 31,8 C 0,0 km/h (0 Bft)
03.06.2019 07:55 19,8 C 17,4 C 18,0 C 32,6 C 32,6 C 12,8 C 83 % 84 % 1016,7 hPa 0,0 l/m 0,0 km/h (0 Bft) SW 225 5 min 16,8 C 32,6 C 0,0 km/h (0 Bft)
03.06.2019 08:00 20,3 C 17,4 C 18,1 C 33,3 C 33,3 C 13,0 C 82 % 83 % 1016,7 hPa 0,0 l/m 0,0 km/h (0 Bft) W-SW 247 5 min 17,1 C 33,3 C 0,0 km/h (0 Bft)
03.06.2019 08:05 20,6 C 17,4 C 18,3 C 33,9 C 33,9 C 13,3 C 81 % 84 % 1016,8 hPa 0,0 l/m 0,0 km/h (0 Bft) N-NO 22 5 min 17,2 C 33,9 C 0,0 km/h (0 Bft)
03.06.2019 08:11 21,2 C 17,4 C 18,5 C 34,2 C 34,2 C 13,0 C 79 % 84 % 1016,8 hPa 0,0 l/m 0,0 km/h (0 Bft) N 0 6 min 17,4 C 34,2 C 0,0 km/h (0 Bft)
03.06.2019 08:26 22,7 C 17,4 C 19,2 C 35,3 C 35,3 C 12,6 C 75 % 83 % 1016,6 hPa 0,0 l/m 0,0 km/h (0 Bft) W-SW 247 15 min 18,0 C 35,3 C 0,0 km/h (0 Bft)
03.06.2019 08:27 22,7 C 17,4 C 19,2 C 35,3 C 35,3 C 12,6 C 75 % 83 % 1016,6 hPa 0,0 l/m 0,0 km/h (0 Bft) W-SW 247 1 min 18,0 C 35,3 C 0,0 km/h (0 Bft)
03.06.2019 08:35 23,7 C 17,4 C 19,7 C 35,9 C 35,9 C 12,2 C 72 % 82 % 1016,6 hPa 0,0 l/m 0,0 km/h (0 Bft) N 360 8 min 18,3 C 35,9 C 0,0 km/h (0 Bft)
03.06.2019 08:40 24,1 C 17,4 C 19,9 C 36,3 C 36,3 C 12,2 C 71 % 82 % 1016,6 hPa 0,0 l/m 0,0 km/h (0 Bft) W 270 5 min 18,5 C 36,3 C 0,0 km/h (0 Bft)
03.06.2019 08:45 24,7 C 17,4 C 20,1 C 36,9 C 36,9 C 12,2 C 69 % 81 % 1016,6 hPa 0,0 l/m 0,0 km/h (0 Bft) SO 135 5 min 18,6 C 36,9 C 0,0 km/h (0 Bft)
03.06.2019 08:50 25,4 C 17,4 C 20,3 C 37,0 C 37,0 C 11,6 C 67 % 80 % 1016,6 hPa 0,0 l/m 0,0 km/h (0 Bft) NW 315 5 min 18,8 C 37,0 C 0,0 km/h (0 Bft)
03.06.2019 08:55 25,9 C 17,4 C 20,5 C 37,0 C 37,0 C 11,1 C 65 % 79 % 1016,6 hPa 0,0 l/m 0,0 km/h (0 Bft) NW 315 5 min 18,8 C 37,0 C 0,0 km/h (0 Bft)
03.06.2019 09:00 26,0 C 17,4 C 20,6 C 36,7 C 36,7 C 10,7 C 64 % 79 % 1016,6 hPa 0,0 l/m 0,2 km/h (0 Bft) N-NO 22 5 min 18,6 C 36,7 C 0,0 km/h (0 Bft)
03.06.2019 09:05 26,3 C 17,4 C 20,7 C 37,0 C 37,0 C 10,7 C 63 % 78 % 1016,9 hPa 0,0 l/m 0,2 km/h (0 Bft) N-NO 22 5 min 18,7 C 37,0 C 3,5 km/h (1 Bft)
03.06.2019 09:10 26,7 C 17,5 C 20,9 C 37,3 C 37,3 C 10,6 C 62 % 78 % 1016,9 hPa 0,0 l/m 0,0 km/h (0 Bft) SO 135 5 min 18,8 C 37,3 C 0,0 km/h (0 Bft)
03.06.2019 09:15 27,1 C 17,5 C 21,0 C 37,9 C 37,9 C 10,8 C 61 % 78 % 1016,9 hPa 0,0 l/m 0,0 km/h (0 Bft) SO 135 5 min 18,9 C 37,9 C 0,0 km/h (0 Bft)
03.06.2019 09:20 27,3 C 17,5 C 21,2 C 38,3 C 38,3 C 11,0 C 61 % 78 % 1016,9 hPa 0,0 l/m 0,0 km/h (0 Bft) W-SW 247 5 min 19,1 C 38,3 C 0,0 km/h (0 Bft)
03.06.2019 09:25 27,4 C 17,4 C 21,3 C 38,1 C 38,1 C 10,7 C 59 % 77 % 1016,7 hPa 0,0 l/m 0,0 km/h (0 Bft) W 270 5 min 18,7 C 38,1 C 0,0 km/h (0 Bft)
03.06.2019 09:30 27,3 C 17,4 C 21,5 C 38,5 C 38,5 C 11,2 C 59 % 77 % 1016,7 hPa 0,0 l/m 0,0 km/h (0 Bft) NW 315 5 min 18,6 C 38,5 C 0,0 km/h (0 Bft)
03.06.2019 09:35 27,5 C 17,4 C 21,7 C 38,3 C 38,3 C 10,8 C 58 % 76 % 1016,7 hPa 0,0 l/m 0,0 km/h (0 Bft) NO 45 5 min 18,5 C 38,3 C 0,0 km/h (0 Bft)
03.06.2019 09:40 27,3 C 17,4 C 21,7 C 36,8 C 36,8 C 9,5 C 58 % 76 % 1016,7 hPa 0,0 l/m 0,2 km/h (0 Bft) S-SW 202 5 min 18,3 C 36,8 C 0,0 km/h (0 Bft)
03.06.2019 09:45 27,2 C 17,5 C 21,7 C 33,3 C 33,3 C 6,1 C 58 % 75 % 1016,5 hPa 0,0 l/m 0,2 km/h (0 Bft) W-SW 247 5 min 18,2 C 33,3 C 3,7 km/h (1 Bft)
03.06.2019 09:50 27,1 C 17,5 C 21,9 C 31,5 C 31,5 C 4,4 C 57 % 74 % 1016,5 hPa 0,0 l/m 0,2 km/h (0 Bft) S-SO 157 5 min 17,8 C 31,5 C 0,0 km/h (0 Bft)
03.06.2019 09:55 27,1 C 17,5 C 22,0 C 31,0 C 31,0 C 3,9 C 57 % 73 % 1016,5 hPa 0,0 l/m 0,6 km/h (0 Bft) W-SW 247 5 min 17,8 C 31,0 C 4,8 km/h (1 Bft)
03.06.2019 10:00 27,0 C 17,5 C 22,2 C 32,7 C 32,7 C 5,7 C 56 % 73 % 1016,5 hPa 0,0 l/m 1,3 km/h (1 Bft) W-SW 247 5 min 17,5 C 32,7 C 4,2 km/h (1 Bft)
03.06.2019 10:05 26,9 C 17,5 C 22,3 C 33,1 C 33,1 C 6,2 C 56 % 71 % 1016,7 hPa 0,0 l/m 1,6 km/h (1 Bft) SW 225 5 min 17,4 C 33,1 C 1,8 km/h (1 Bft)
03.06.2019 10:11 26,9 C 17,5 C 22,4 C 31,7 C 31,7 C 4,8 C 55 % 70 % 1016,7 hPa 0,0 l/m 2,4 km/h (1 Bft) N 0 6 min 17,1 C 31,7 C 7,1 km/h (2 Bft)
03.06.2019 10:26 27,1 C 17,6 C 22,9 C 34,8 C 34,8 C 7,7 C 54 % 67 % 1016,5 hPa 0,0 l/m 2,1 km/h (1 Bft) O-NO 67 15 min 17,0 C 34,8 C 13,4 km/h (3 Bft)
03.06.2019 10:27 27,1 C 17,6 C 22,9 C 34,8 C 34,8 C 7,7 C 54 % 67 % 1016,5 hPa 0,0 l/m 2,1 km/h (1 Bft) O-NO 67 1 min 17,0 C 34,8 C 5,3 km/h (1 Bft)
03.06.2019 10:40 27,4 C 17,5 C 23,4 C 37,1 C 37,1 C 9,7 C 53 % 65 % 1016,5 hPa 0,0 l/m 0,3 km/h (0 Bft) S 180 13 min 17,0 C 37,1 C 4,5 km/h (1 Bft)
03.06.2019 10:45 27,7 C 17,5 C 23,5 C 37,2 C 37,2 C 9,5 C 52 % 64 % 1016,6 hPa 0,0 l/m 0,8 km/h (0 Bft) S 180 5 min 16,9 C 37,2 C 0,0 km/h (0 Bft)
03.06.2019 10:50 27,7 C 17,6 C 23,5 C 37,5 C 37,5 C 9,8 C 52 % 64 % 1016,6 hPa 0,0 l/m 0,8 km/h (0 Bft) O-NO 67 5 min 16,9 C 37,5 C 2,7 km/h (1 Bft)
03.06.2019 10:55 27,9 C 17,6 C 23,7 C 37,6 C 37,6 C 9,7 C 52 % 64 % 1016,6 hPa 0,0 l/m 0,5 km/h (0 Bft) S-SW 202 5 min 17,1 C 37,6 C 0,0 km/h (0 Bft)
03.06.2019 11:00 28,1 C 17,6 C 23,9 C 37,4 C 37,4 C 9,3 C 51 % 63 % 1016,6 hPa 0,0 l/m 0,6 km/h (0 Bft) W 270 5 min 17,0 C 37,4 C 0,0 km/h (0 Bft)
03.06.2019 11:05 28,0 C 17,6 C 23,9 C 37,5 C 37,5 C 9,5 C 51 % 64 % 1016,3 hPa 0,0 l/m 0,5 km/h (0 Bft) S 180 5 min 16,9 C 37,5 C 0,0 km/h (0 Bft)
03.06.2019 11:10 28,3 C 17,6 C 23,9 C 37,7 C 37,7 C 9,4 C 49 % 63 % 1016,3 hPa 0,0 l/m 0,3 km/h (0 Bft) S-SO 157 5 min 16,5 C 37,7 C 1,6 km/h (1 Bft)
03.06.2019 11:15 28,2 C 17,7 C 24,2 C 37,5 C 37,5 C 9,3 C 50 % 62 % 1016,3 hPa 0,0 l/m 0,5 km/h (0 Bft) SO 135 5 min 16,8 C 37,5 C 1,6 km/h (1 Bft)
03.06.2019 11:20 28,3 C 17,7 C 24,3 C 37,5 C 37,5 C 9,2 C 50 % 61 % 1016,3 hPa 0,0 l/m 1,0 km/h (0 Bft) S 180 5 min 16,9 C 37,5 C 4,5 km/h (1 Bft)
03.06.2019 11:25 28,4 C 17,7 C 24,4 C 36,4 C 36,4 C 8,0 C 49 % 61 % 1016,5 hPa 0,0 l/m 1,1 km/h (1 Bft) S-SO 157 5 min 16,6 C 36,4 C 1,8 km/h (1 Bft)
03.06.2019 11:30 28,5 C 17,7 C 24,5 C 36,0 C 36,0 C 7,5 C 50 % 62 % 1016,5 hPa 0,0 l/m 1,0 km/h (0 Bft) S-SO 157 5 min 17,0 C 36,0 C 0,0 km/h (0 Bft)
03.06.2019 11:35 28,7 C 17,7 C 24,6 C 36,6 C 36,6 C 7,9 C 48 % 60 % 1016,5 hPa 0,0 l/m 0,8 km/h (0 Bft) W 270 5 min 16,6 C 36,6 C 0,0 km/h (0 Bft)
03.06.2019 11:40 28,6 C 17,7 C 24,7 C 36,8 C 36,8 C 8,2 C 48 % 60 % 1016,5 hPa 0,0 l/m 1,1 km/h (1 Bft) S 180 5 min 16,5 C 36,8 C 3,4 km/h (1 Bft)
03.06.2019 11:45 28,7 C 17,7 C 24,8 C 36,9 C 36,9 C 8,2 C 48 % 59 % 1016,4 hPa 0,0 l/m 1,8 km/h (1 Bft) O-SO 112 5 min 16,6 C 36,9 C 8,5 km/h (2 Bft)
03.06.2019 11:50 28,8 C 17,7 C 24,9 C 36,6 C 36,6 C 7,8 C 47 % 58 % 1016,4 hPa 0,0 l/m 1,8 km/h (1 Bft) N-NW 337 5 min 16,3 C 36,6 C 3,4 km/h (1 Bft)
03.06.2019 11:55 28,9 C 17,7 C 25,0 C 36,9 C 36,9 C 8,0 C 46 % 59 % 1016,4 hPa 0,0 l/m 1,3 km/h (1 Bft) S 180 5 min 16,1 C 36,9 C 0,0 km/h (0 Bft)
03.06.2019 12:00 29,1 C 17,7 C 25,1 C 37,2 C 37,2 C 8,1 C 46 % 59 % 1016,4 hPa 0,0 l/m 0,6 km/h (0 Bft) W-SW 247 5 min 16,3 C 37,2 C 0,0 km/h (0 Bft)
03.06.2019 12:05 29,1 C 17,7 C 25,3 C 37,3 C 37,3 C 8,2 C 46 % 59 % 1016,3 hPa 0,0 l/m 0,5 km/h (0 Bft) S-SO 157 5 min 16,3 C 37,3 C 0,0 km/h (0 Bft)
03.06.2019 12:11 29,2 C 17,8 C 25,5 C 37,2 C 37,2 C 8,0 C 45 % 56 % 1016,3 hPa 0,0 l/m 1,1 km/h (1 Bft) N 0 6 min 16,0 C 37,2 C 3,7 km/h (1 Bft)
03.06.2019 12:27 29,9 C 17,8 C 26,0 C 37,4 C 37,4 C 7,5 C 45 % 56 % 1016,0 hPa 0,0 l/m 0,2 km/h (0 Bft) W-SW 247 16 min 16,7 C 37,4 C 1,6 km/h (1 Bft)
03.06.2019 12:35 30,3 C 17,9 C 26,1 C 37,5 C 37,5 C 7,2 C 43 % 55 % 1016,0 hPa 0,0 l/m 0,6 km/h (0 Bft) SW 225 8 min 16,3 C 37,5 C 0,0 km/h (0 Bft)
03.06.2019 12:40 30,4 C 17,9 C 26,3 C 37,6 C 37,6 C 7,2 C 43 % 54 % 1016,0 hPa 0,0 l/m 0,6 km/h (0 Bft) O-SO 112 5 min 16,4 C 37,6 C 0,0 km/h (0 Bft)
03.06.2019 12:45 30,8 C 17,9 C 26,4 C 37,9 C 37,9 C 7,1 C 43 % 54 % 1016,0 hPa 0,0 l/m 0,5 km/h (0 Bft) N-NW 337 5 min 16,7 C 37,9 C 0,0 km/h (0 Bft)
03.06.2019 12:50 31,4 C 17,9 C 26,5 C 37,9 C 37,9 C 6,5 C 42 % 53 % 1016,0 hPa 0,0 l/m 0,8 km/h (0 Bft) W 270 5 min 16,9 C 37,9 C 0,0 km/h (0 Bft)
03.06.2019 12:55 31,7 C 18,0 C 26,9 C 37,9 C 37,9 C 6,2 C 40 % 53 % 1016,0 hPa 0,0 l/m 0,8 km/h (0 Bft) N-NO 22 5 min 16,4 C 37,9 C 0,0 km/h (0 Bft)
03.06.2019 13:00 31,8 C 18,0 C 27,2 C 38,0 C 38,0 C 6,2 C 40 % 53 % 1016,0 hPa 0,0 l/m 0,8 km/h (0 Bft) SW 225 5 min 16,5 C 38,0 C 2,3 km/h (1 Bft)
03.06.2019 13:05 32,0 C 18,0 C 27,5 C 38,5 C 38,5 C 6,5 C 40 % 52 % 1015,8 hPa 0,0 l/m 0,5 km/h (0 Bft) S 180 5 min 16,7 C 38,5 C 2,1 km/h (1 Bft)
03.06.2019 13:10 32,5 C 18,0 C 27,6 C 38,4 C 38,4 C 5,9 C 39 % 51 % 1015,8 hPa 0,0 l/m 0,8 km/h (0 Bft) S 180 5 min 16,7 C 38,4 C 0,0 km/h (0 Bft)
03.06.2019 13:15 32,4 C 18,1 C 27,8 C 38,6 C 38,6 C 6,2 C 39 % 50 % 1015,8 hPa 0,0 l/m 1,0 km/h (0 Bft) SW 225 5 min 16,6 C 38,6 C 2,9 km/h (1 Bft)
03.06.2019 13:20 32,3 C 18,1 C 28,0 C 38,7 C 38,7 C 6,4 C 39 % 51 % 1015,8 hPa 0,0 l/m 0,6 km/h (0 Bft) S 180 5 min 16,5 C 38,7 C 6,1 km/h (2 Bft)
03.06.2019 13:25 32,3 C 18,1 C 28,1 C 38,7 C 38,7 C 6,4 C 38 % 49 % 1015,7 hPa 0,0 l/m 1,0 km/h (0 Bft) S-SW 202 5 min 16,1 C 38,7 C 0,0 km/h (0 Bft)
03.06.2019 13:30 32,5 C 18,1 C 28,3 C 38,7 C 38,7 C 6,2 C 37 % 48 % 1015,7 hPa 0,0 l/m 1,0 km/h (0 Bft) W-NW 292 5 min 15,9 C 38,7 C 0,0 km/h (0 Bft)
03.06.2019 13:35 33,0 C 18,2 C 28,4 C 39,1 C 39,1 C 6,1 C 38 % 50 % 1015,7 hPa 0,0 l/m 0,6 km/h (0 Bft) S 180 5 min 16,8 C 39,1 C 0,0 km/h (0 Bft)
03.06.2019 13:40 32,8 C 18,2 C 28,5 C 39,2 C 39,2 C 6,4 C 39 % 49 % 1015,7 hPa 0,0 l/m 1,0 km/h (0 Bft) O-NO 67 5 min 17,0 C 39,2 C 6,4 km/h (2 Bft)
03.06.2019 13:45 32,1 C 18,2 C 28,7 C 38,0 C 38,0 C 5,9 C 39 % 48 % 1015,6 hPa 0,0 l/m 2,7 km/h (1 Bft) O-NO 67 5 min 16,4 C 38,0 C 3,2 km/h (1 Bft)
03.06.2019 13:50 31,7 C 18,2 C 28,7 C 37,4 C 37,4 C 5,7 C 43 % 51 % 1015,6 hPa 0,0 l/m 4,0 km/h (1 Bft) O-NO 67 5 min 17,6 C 37,4 C 5,1 km/h (1 Bft)
03.06.2019 13:55 31,2 C 18,3 C 28,7 C 36,6 C 36,6 C 5,4 C 42 % 48 % 1015,6 hPa 0,0 l/m 3,4 km/h (1 Bft) N-NO 22 5 min 16,7 C 36,6 C 1,9 km/h (1 Bft)
03.06.2019 14:00 31,3 C 18,3 C 28,6 C 36,7 C 36,7 C 5,4 C 44 % 49 % 1015,6 hPa 0,0 l/m 2,9 km/h (1 Bft) NO 45 5 min 17,6 C 36,7 C 5,1 km/h (1 Bft)
03.06.2019 14:05 31,1 C 18,3 C 28,1 C 34,8 C 34,8 C 3,7 C 43 % 50 % 1015,3 hPa 0,0 l/m 2,3 km/h (1 Bft) NO 45 5 min 17,0 C 34,8 C 5,0 km/h (1 Bft)
03.06.2019 14:11 30,5 C 18,3 C 27,9 C 33,2 C 33,2 C 2,7 C 43 % 51 % 1015,3 hPa 0,0 l/m 2,1 km/h (1 Bft) N 0 0 min 16,5 C 33,2 C 1,8 km/h (1 Bft)
03.06.2019 14:26 30,2 C 18,3 C 28,2 C 34,0 C 34,0 C 3,8 C 43 % 46 % 1015,2 hPa 0,0 l/m 3,1 km/h (1 Bft) NO 45 15 min 16,2 C 34,0 C 3,4 km/h (1 Bft)
03.06.2019 14:27 30,2 C 18,3 C 28,2 C 34,0 C 34,0 C 3,8 C 43 % 46 % 1015,2 hPa 0,0 l/m 3,1 km/h (1 Bft) NO 45 1 min 16,2 C 34,0 C 3,4 km/h (1 Bft)
03.06.2019 14:35 30,4 C 18,4 C 28,0 C 33,9 C 33,9 C 3,5 C 42 % 46 % 1015,2 hPa 0,0 l/m 1,0 km/h (0 Bft) O-NO 67 8 min 16,0 C 33,9 C 0,0 km/h (0 Bft)
03.06.2019 14:40 30,7 C 18,4 C 28,0 C 34,4 C 34,4 C 3,7 C 42 % 46 % 1015,2 hPa 0,0 l/m 0,6 km/h (0 Bft) W 270 5 min 16,3 C 34,4 C 0,0 km/h (0 Bft)
03.06.2019 14:45 31,1 C 18,4 C 28,5 C 36,4 C 36,4 C 5,3 C 42 % 45 % 1014,9 hPa 0,0 l/m 0,8 km/h (0 Bft) N-NW 337 5 min 16,6 C 36,4 C 2,6 km/h (1 Bft)
03.06.2019 14:50 31,5 C 18,5 C 28,6 C 37,4 C 37,4 C 5,9 C 41 % 45 % 1014,9 hPa 0,0 l/m 0,8 km/h (0 Bft) W-SW 247 5 min 16,6 C 37,4 C 0,0 km/h (0 Bft)
03.06.2019 14:55 32,1 C 18,5 C 28,8 C 38,7 C 38,7 C 6,6 C 40 % 48 % 1014,9 hPa 0,0 l/m 0,8 km/h (0 Bft) W-SW 247 5 min 16,8 C 38,7 C 0,0 km/h (0 Bft)
03.06.2019 15:00 32,3 C 18,5 C 28,7 C 38,9 C 38,9 C 6,6 C 40 % 46 % 1014,9 hPa 0,0 l/m 0,6 km/h (0 Bft) SO 135 5 min 16,9 C 38,9 C 1,6 km/h (1 Bft)
03.06.2019 15:05 32,3 C 18,5 C 28,7 C 39,1 C 39,1 C 6,8 C 40 % 45 % 1014,6 hPa 0,0 l/m 0,3 km/h (0 Bft) O-NO 67 5 min 16,9 C 39,1 C 2,7 km/h (1 Bft)
03.06.2019 15:10 32,1 C 18,6 C 28,8 C 38,6 C 38,6 C 6,5 C 40 % 46 % 1014,6 hPa 0,0 l/m 1,4 km/h (1 Bft) N-NO 22 5 min 16,8 C 38,6 C 5,0 km/h (1 Bft)
03.06.2019 15:15 31,5 C 18,6 C 28,9 C 37,4 C 37,4 C 5,9 C 40 % 47 % 1014,6 hPa 0,0 l/m 3,4 km/h (1 Bft) O-NO 67 5 min 16,2 C 37,4 C 2,4 km/h (1 Bft)
03.06.2019 15:20 31,3 C 18,6 C 28,9 C 37,0 C 37,0 C 5,7 C 41 % 48 % 1014,6 hPa 0,0 l/m 2,9 km/h (1 Bft) O-NO 67 5 min 16,4 C 37,0 C 0,0 km/h (0 Bft)
03.06.2019 15:25 31,4 C 18,6 C 28,7 C 37,4 C 37,4 C 6,0 C 42 % 48 % 1014,6 hPa 0,0 l/m 0,8 km/h (0 Bft) W 270 5 min 16,9 C 37,4 C 0,0 km/h (0 Bft)
03.06.2019 15:30 31,8 C 18,7 C 28,6 C 37,4 C 37,4 C 5,6 C 39 % 46 % 1014,6 hPa 0,0 l/m 0,0 km/h (0 Bft) S 180 5 min 16,1 C 37,4 C 0,0 km/h (0 Bft)
03.06.2019 15:35 32,2 C 18,7 C 29,0 C 38,7 C 38,7 C 6,5 C 38 % 48 % 1014,6 hPa 0,0 l/m 0,0 km/h (0 Bft) S 180 5 min 16,0 C 38,7 C 0,0 km/h (0 Bft)
03.06.2019 15:40 32,3 C 18,7 C 29,1 C 39,5 C 39,5 C 7,2 C 36 % 44 % 1014,6 hPa 0,0 l/m 0,2 km/h (0 Bft) W-SW 247 5 min 15,3 C 39,5 C 0,0 km/h (0 Bft)
03.06.2019 15:45 32,3 C 18,7 C 29,2 C 39,7 C 39,7 C 7,4 C 36 % 46 % 1014,6 hPa 0,0 l/m 0,3 km/h (0 Bft) NW 315 5 min 15,3 C 39,7 C 0,0 km/h (0 Bft)
03.06.2019 15:50 32,3 C 18,7 C 29,2 C 40,1 C 40,1 C 7,8 C 36 % 47 % 1014,6 hPa 0,0 l/m 0,2 km/h (0 Bft) W-NW 292 5 min 15,3 C 40,1 C 0,0 km/h (0 Bft)
03.06.2019 15:55 32,1 C 18,8 C 29,3 C 40,6 C 40,6 C 8,5 C 36 % 44 % 1014,6 hPa 0,0 l/m 0,0 km/h (0 Bft) W 270 5 min 15,1 C 40,6 C 0,0 km/h (0 Bft)
03.06.2019 16:00 32,0 C 18,8 C 29,2 C 40,7 C 40,7 C 8,7 C 36 % 46 % 1014,6 hPa 0,0 l/m 0,0 km/h (0 Bft) W-SW 247 5 min 15,0 C 40,7 C 0,0 km/h (0 Bft)
03.06.2019 16:05 32,0 C 18,8 C 29,1 C 40,6 C 40,6 C 8,6 C 35 % 45 % 1014,3 hPa 0,0 l/m 0,0 km/h (0 Bft) S-SO 157 5 min 14,6 C 40,6 C 0,0 km/h (0 Bft)
03.06.2019 16:11 31,7 C 18,8 C 29,1 C 40,1 C 40,1 C 8,4 C 35 % 45 % 1014,3 hPa 0,0 l/m 0,3 km/h (0 Bft) N 0 6 min 14,3 C 40,1 C 0,0 km/h (0 Bft)
03.06.2019 16:26 31,7 C 18,8 C 29,5 C 40,0 C 40,0 C 8,3 C 34 % 44 % 1014,0 hPa 0,0 l/m 0,5 km/h (0 Bft) S 180 15 min 13,9 C 40,0 C 2,7 km/h (1 Bft)
03.06.2019 16:35 31,7 C 18,8 C 29,3 C 39,8 C 39,8 C 8,1 C 34 % 40 % 1014,0 hPa 0,0 l/m 0,6 km/h (0 Bft) SO 135 9 min 13,9 C 39,8 C 0,0 km/h (0 Bft)
03.06.2019 16:40 31,7 C 18,8 C 29,3 C 39,9 C 39,9 C 8,2 C 35 % 40 % 1014,0 hPa 0,0 l/m 0,3 km/h (0 Bft) W-SW 247 5 min 14,3 C 39,9 C 2,7 km/h (1 Bft)
03.06.2019 16:45 31,7 C 18,8 C 29,5 C 39,9 C 39,9 C 8,2 C 34 % 41 % 1013,5 hPa 0,0 l/m 0,3 km/h (0 Bft) O-SO 112 5 min 13,9 C 39,9 C 0,0 km/h (0 Bft)
03.06.2019 16:50 31,7 C 18,8 C 29,5 C 39,9 C 39,9 C 8,2 C 36 % 40 % 1013,5 hPa 0,0 l/m 0,6 km/h (0 Bft) NO 45 5 min 14,8 C 39,9 C 1,9 km/h (1 Bft)
03.06.2019 16:55 31,5 C 18,9 C 29,6 C 39,0 C 39,0 C 7,5 C 37 % 41 % 1013,5 hPa 0,0 l/m 1,1 km/h (1 Bft) NO 45 5 min 15,0 C 39,0 C 2,3 km/h (1 Bft)
03.06.2019 17:00 31,3 C 18,9 C 29,6 C 38,8 C 38,8 C 7,5 C 37 % 40 % 1013,5 hPa 0,0 l/m 1,8 km/h (1 Bft) O-NO 67 5 min 14,8 C 38,8 C 4,0 km/h (1 Bft)
03.06.2019 17:05 31,2 C 19,0 C 29,5 C 38,3 C 38,3 C 7,1 C 37 % 40 % 1013,6 hPa 0,0 l/m 1,4 km/h (1 Bft) O-NO 67 5 min 14,8 C 38,3 C 3,1 km/h (1 Bft)
03.06.2019 17:10 31,2 C 19,0 C 29,5 C 38,3 C 38,3 C 7,1 C 40 % 43 % 1013,6 hPa 0,0 l/m 1,3 km/h (1 Bft) N-NO 22 5 min 16,0 C 38,3 C 2,1 km/h (1 Bft)
03.06.2019 17:15 31,0 C 19,0 C 29,4 C 37,8 C 37,8 C 6,8 C 38 % 42 % 1013,6 hPa 0,0 l/m 2,1 km/h (1 Bft) SW 225 5 min 15,0 C 37,8 C 0,0 km/h (0 Bft)
03.06.2019 17:20 31,1 C 19,0 C 29,2 C 38,0 C 38,0 C 6,9 C 38 % 44 % 1013,6 hPa 0,0 l/m 1,8 km/h (1 Bft) W 270 5 min 15,1 C 38,0 C 1,6 km/h (1 Bft)
03.06.2019 17:25 31,1 C 18,9 C 29,2 C 39,0 C 39,0 C 7,9 C 38 % 46 % 1013,4 hPa 0,0 l/m 0,0 km/h (0 Bft) N 360 5 min 15,1 C 39,0 C 0,0 km/h (0 Bft)
03.06.2019 17:30 31,3 C 19,0 C 29,2 C 39,4 C 39,4 C 8,1 C 39 % 45 % 1013,4 hPa 0,0 l/m 0,2 km/h (0 Bft) O-SO 112 5 min 15,7 C 39,4 C 0,0 km/h (0 Bft)
03.06.2019 17:35 31,2 C 19,1 C 29,2 C 38,8 C 38,8 C 7,6 C 40 % 44 % 1013,4 hPa 0,0 l/m 1,3 km/h (1 Bft) O-NO 67 5 min 16,0 C 38,8 C 3,2 km/h (1 Bft)
03.06.2019 17:40 31,0 C 19,1 C 29,1 C 38,2 C 38,2 C 7,2 C 40 % 44 % 1013,4 hPa 0,0 l/m 2,3 km/h (1 Bft) NW 315 5 min 15,8 C 38,2 C 5,1 km/h (1 Bft)
03.06.2019 17:45 31,0 C 19,1 C 29,3 C 37,6 C 37,6 C 6,6 C 42 % 45 % 1013,2 hPa 0,0 l/m 2,4 km/h (1 Bft) O-NO 67 5 min 16,6 C 37,6 C 2,4 km/h (1 Bft)
03.06.2019 17:50 30,9 C 19,1 C 29,1 C 37,2 C 37,2 C 6,3 C 44 % 47 % 1013,2 hPa 0,0 l/m 2,6 km/h (1 Bft) N-NO 22 5 min 17,2 C 37,2 C 5,3 km/h (1 Bft)
03.06.2019 17:55 30,8 C 19,1 C 29,0 C 36,3 C 36,3 C 5,5 C 44 % 48 % 1013,2 hPa 0,0 l/m 3,1 km/h (1 Bft) O-NO 67 5 min 17,1 C 36,3 C 2,6 km/h (1 Bft)
03.06.2019 18:00 30,7 C 19,1 C 28,8 C 36,3 C 36,3 C 5,6 C 43 % 48 % 1013,2 hPa 0,0 l/m 2,6 km/h (1 Bft) NO 45 5 min 16,7 C 36,3 C 1,6 km/h (1 Bft)
03.06.2019 18:05 30,7 C 19,1 C 28,7 C 36,3 C 36,3 C 5,6 C 44 % 47 % 1013,1 hPa 0,0 l/m 1,9 km/h (1 Bft) N-NO 22 5 min 17,0 C 36,3 C 2,7 km/h (1 Bft)
03.06.2019 18:11 30,6 C 19,2 C 28,6 C 36,3 C 36,3 C 5,7 C 45 % 49 % 1013,1 hPa 0,0 l/m 2,1 km/h (1 Bft) N 0 6 min 17,3 C 36,3 C 3,1 km/h (1 Bft)
03.06.2019 18:26 30,4 C 19,2 C 28,3 C 36,7 C 36,7 C 6,3 C 45 % 50 % 1013,5 hPa 0,0 l/m 0,8 km/h (0 Bft) NO 45 15 min 17,1 C 36,7 C 2,9 km/h (1 Bft)
03.06.2019 18:35 30,6 C 19,2 C 28,5 C 37,1 C 37,1 C 6,5 C 44 % 48 % 1013,5 hPa 0,0 l/m 0,5 km/h (0 Bft) O-NO 67 9 min 16,9 C 37,1 C 0,0 km/h (0 Bft)
03.06.2019 18:40 30,5 C 19,2 C 28,3 C 37,0 C 37,0 C 6,5 C 44 % 48 % 1013,5 hPa 0,0 l/m 0,3 km/h (0 Bft) W 270 5 min 16,8 C 37,0 C 0,0 km/h (0 Bft)
03.06.2019 18:45 30,5 C 19,2 C 28,3 C 36,7 C 36,7 C 6,2 C 44 % 48 % 1013,7 hPa 0,0 l/m 0,6 km/h (0 Bft) O-NO 67 5 min 16,8 C 36,7 C 0,0 km/h (0 Bft)
03.06.2019 18:50 30,4 C 19,3 C 28,2 C 36,7 C 36,7 C 6,3 C 44 % 49 % 1013,7 hPa 0,0 l/m 0,6 km/h (0 Bft) NO 45 5 min 16,7 C 36,7 C 0,0 km/h (0 Bft)
03.06.2019 18:55 30,4 C 19,3 C 28,1 C 36,5 C 36,5 C 6,1 C 44 % 49 % 1013,7 hPa 0,0 l/m 0,5 km/h (0 Bft) SW 225 5 min 16,7 C 36,5 C 0,0 km/h (0 Bft)
03.06.2019 19:00 30,6 C 19,3 C 28,0 C 37,1 C 37,1 C 6,5 C 43 % 51 % 1013,7 hPa 0,0 l/m 0,2 km/h (0 Bft) S-SW 202 5 min 16,6 C 37,1 C 0,0 km/h (0 Bft)
03.06.2019 19:05 30,7 C 19,3 C 27,8 C 36,5 C 36,5 C 5,8 C 42 % 49 % 1013,8 hPa 0,0 l/m 0,0 km/h (0 Bft) O-SO 112 5 min 16,3 C 36,5 C 0,0 km/h (0 Bft)
03.06.2019 19:10 30,6 C 19,3 C 27,6 C 35,4 C 35,4 C 4,8 C 43 % 51 % 1013,8 hPa 0,0 l/m 0,0 km/h (0 Bft) O-NO 67 5 min 16,6 C 35,4 C 0,0 km/h (0 Bft)
03.06.2019 19:15 30,3 C 19,3 C 27,2 C 33,7 C 33,7 C 3,4 C 45 % 54 % 1013,8 hPa 0,0 l/m 0,0 km/h (0 Bft) O-NO 67 5 min 17,0 C 33,7 C 0,0 km/h (0 Bft)
03.06.2019 19:20 30,0 C 19,3 C 26,9 C 32,9 C 32,9 C 2,9 C 47 % 54 % 1013,8 hPa 0,0 l/m 0,0 km/h (0 Bft) O-NO 67 5 min 17,4 C 32,9 C 0,0 km/h (0 Bft)
03.06.2019 19:25 29,8 C 19,3 C 26,7 C 31,4 C 31,4 C 1,6 C 48 % 56 % 1013,6 hPa 0,0 l/m 0,0 km/h (0 Bft) O-NO 67 0 min 17,6 C 31,4 C 0,0 km/h (0 Bft)
03.06.2019 19:30 29,5 C 19,3 C 26,4 C 30,7 C 30,7 C 1,2 C 50 % 57 % 1013,6 hPa 0,0 l/m 0,0 km/h (0 Bft) NO 45 0 min 18,0 C 30,7 C 0,0 km/h (0 Bft)
03.06.2019 19:35 29,1 C 19,3 C 26,0 C 29,5 C 29,5 C 0,4 C 53 % 60 % 1013,6 hPa 0,0 l/m 0,2 km/h (0 Bft) O-NO 67 0 min 18,5 C 29,5 C 0,0 km/h (0 Bft)
03.06.2019 19:40 28,7 C 19,4 C 25,7 C 28,8 C 28,8 C 0,1 C 54 % 62 % 1013,6 hPa 0,0 l/m 0,2 km/h (0 Bft) O 90 0 min 18,5 C 28,8 C 0,0 km/h (0 Bft)
03.06.2019 19:45 28,5 C 19,5 C 25,5 C 28,3 C 27,9 C 0,0 C 55 % 63 % 1013,9 hPa 0,0 l/m 0,0 km/h (0 Bft) SO 135 0 min 18,6 C 27,9 C 0,0 km/h (0 Bft)
03.06.2019 19:50 28,3 C 19,5 C 25,2 C 28,1 C 27,6 C 0,0 C 54 % 62 % 1013,9 hPa 0,0 l/m 0,0 km/h (0 Bft) S 180 0 min 18,1 C 27,6 C 0,0 km/h (0 Bft)
03.06.2019 19:55 27,9 C 19,5 C 25,1 C 27,6 C 27,0 C 0,0 C 56 % 64 % 1013,9 hPa 0,0 l/m 0,0 km/h (0 Bft) NO 45 0 min 18,3 C 27,0 C 0,0 km/h (0 Bft)
03.06.2019 20:00 27,6 C 19,5 C 24,9 C 27,3 C 26,6 C 0,0 C 56 % 64 % 1013,9 hPa 0,0 l/m 0,0 km/h (0 Bft) O-NO 67 0 min 18,0 C 26,6 C 0,0 km/h (0 Bft)
03.06.2019 20:05 27,3 C 19,5 C 24,7 C 26,9 C 26,1 C 0,0 C 57 % 65 % 1014,1 hPa 0,0 l/m 0,0 km/h (0 Bft) O-NO 67 0 min 18,0 C 26,1 C 0,0 km/h (0 Bft)
03.06.2019 20:11 27,1 C 19,5 C 24,5 C 26,6 C 25,7 C 0,0 C 59 % 64 % 1014,1 hPa 0,0 l/m 1,0 km/h (0 Bft) N 0 0 min 18,4 C 25,7 C 13,2 km/h (3 Bft)
03.06.2019 20:26 25,3 C 19,4 C 23,9 C 25,0 C 24,3 C 0,0 C 54 % 57 % 1015,4 hPa 0,0 l/m 6,1 km/h (2 Bft) W-SW 247 0 min 15,3 C 24,3 C 16,3 km/h (3 Bft)
03.06.2019 20:35 24,3 C 19,5 C 23,0 C 24,0 C 23,3 C 0,0 C 53 % 56 % 1015,4 hPa 0,0 l/m 5,8 km/h (2 Bft) W-SW 247 0 min 14,1 C 23,3 C 5,8 km/h (2 Bft)
03.06.2019 20:40 24,0 C 19,5 C 22,9 C 23,6 C 22,9 C 0,0 C 54 % 56 % 1015,4 hPa 0,0 l/m 5,3 km/h (1 Bft) SW 225 0 min 14,1 C 22,9 C 6,1 km/h (2 Bft)
03.06.2019 20:45 23,7 C 19,4 C 22,7 C 23,3 C 22,5 C 0,0 C 54 % 56 % 1015,7 hPa 0,0 l/m 6,1 km/h (2 Bft) S-SO 157 0 min 13,8 C 22,5 C 20,0 km/h (4 Bft)
03.06.2019 20:50 23,2 C 19,4 C 22,3 C 22,8 C 22,1 C 0,0 C 55 % 58 % 1015,7 hPa 0,0 l/m 6,3 km/h (2 Bft) SW 225 0 min 13,6 C 22,1 C 5,8 km/h (2 Bft)
03.06.2019 20:55 22,8 C 19,4 C 22,0 C 22,4 C 21,7 C 0,0 C 57 % 59 % 1015,7 hPa 0,0 l/m 5,0 km/h (1 Bft) SW 225 0 min 13,8 C 21,7 C 8,9 km/h (2 Bft)
03.06.2019 21:00 22,5 C 19,4 C 21,7 C 22,1 C 21,4 C 0,0 C 58 % 60 % 1015,7 hPa 0,0 l/m 4,8 km/h (1 Bft) SW 225 0 min 13,8 C 21,4 C 10,3 km/h (2 Bft)
03.06.2019 21:05 22,2 C 19,4 C 21,6 C 21,8 C 21,1 C 0,0 C 59 % 61 % 1016,9 hPa 0,0 l/m 5,1 km/h (1 Bft) S-SO 157 0 min 13,8 C 21,1 C 4,0 km/h (1 Bft)
03.06.2019 21:10 22,0 C 19,3 C 21,3 C 21,6 C 20,9 C 0,0 C 60 % 62 % 1016,9 hPa 0,0 l/m 4,5 km/h (1 Bft) S 180 0 min 13,9 C 20,9 C 3,2 km/h (1 Bft)
03.06.2019 21:15 21,8 C 19,3 C 21,1 C 21,4 C 20,7 C 0,0 C 60 % 62 % 1016,9 hPa 0,0 l/m 3,4 km/h (1 Bft) S 180 0 min 13,7 C 20,7 C 2,9 km/h (1 Bft)
03.06.2019 21:20 21,6 C 19,3 C 21,0 C 21,2 C 20,5 C 0,0 C 61 % 63 % 1016,9 hPa 0,0 l/m 3,4 km/h (1 Bft) NW 315 0 min 13,7 C 20,5 C 2,3 km/h (1 Bft)
03.06.2019 21:25 21,5 C 19,3 C 20,8 C 21,1 C 20,3 C 0,0 C 61 % 63 % 1016,6 hPa 0,0 l/m 3,1 km/h (1 Bft) NW 315 0 min 13,7 C 20,3 C 1,8 km/h (1 Bft)
03.06.2019 21:30 21,3 C 19,3 C 20,7 C 20,9 C 20,2 C 0,0 C 62 % 64 % 1016,6 hPa 0,0 l/m 2,1 km/h (1 Bft) SW 225 0 min 13,7 C 20,2 C 0,0 km/h (0 Bft)
03.06.2019 21:35 21,2 C 19,3 C 20,5 C 20,8 C 19,9 C 0,0 C 63 % 66 % 1016,6 hPa 0,0 l/m 0,5 km/h (0 Bft) S-SO 157 0 min 13,9 C 19,9 C 1,6 km/h (1 Bft)
03.06.2019 21:40 21,0 C 19,2 C 20,4 C 20,6 C 19,8 C 0,0 C 63 % 66 % 1016,6 hPa 0,0 l/m 0,2 km/h (0 Bft) SO 135 0 min 13,7 C 19,8 C 0,0 km/h (0 Bft)
03.06.2019 21:45 20,9 C 19,2 C 20,2 C 20,5 C 19,6 C 0,0 C 64 % 66 % 1017,1 hPa 0,0 l/m 0,2 km/h (0 Bft) S-SO 157 0 min 13,8 C 19,6 C 0,0 km/h (0 Bft)
03.06.2019 21:50 20,8 C 19,2 C 20,1 C 20,3 C 19,4 C 0,0 C 64 % 67 % 1017,1 hPa 0,0 l/m 0,2 km/h (0 Bft) O-SO 112 0 min 13,7 C 19,4 C 0,0 km/h (0 Bft)
03.06.2019 21:55 20,6 C 19,3 C 19,9 C 20,2 C 19,3 C 0,0 C 65 % 68 % 1017,1 hPa 0,0 l/m 0,2 km/h (0 Bft) O-NO 67 0 min 13,8 C 19,3 C 0,0 km/h (0 Bft)
03.06.2019 22:00 20,5 C 19,3 C 19,7 C 20,1 C 19,2 C 0,0 C 65 % 68 % 1017,1 hPa 0,0 l/m 0,2 km/h (0 Bft) O-NO 67 0 min 13,7 C 19,2 C 0,0 km/h (0 Bft)
03.06.2019 22:05 20,4 C 19,3 C 19,7 C 19,9 C 19,0 C 0,0 C 65 % 68 % 1017,0 hPa 0,0 l/m 0,2 km/h (0 Bft) W-SW 247 0 min 13,6 C 19,0 C 0,0 km/h (0 Bft)
03.06.2019 22:11 20,3 C 19,3 C 19,4 C 19,8 C 18,8 C 0,0 C 66 % 69 % 1017,0 hPa 0,0 l/m 0,0 km/h (0 Bft) N 0 0 min 13,7 C 18,8 C 0,0 km/h (0 Bft)
03.06.2019 22:26 20,0 C 19,2 C 19,3 C 19,6 C 18,7 C 0,0 C 67 % 70 % 1017,1 hPa 0,0 l/m 0,0 km/h (0 Bft) S-SO 157 0 min 13,7 C 18,7 C 0,0 km/h (0 Bft)
03.06.2019 22:35 19,7 C 19,2 C 18,8 C 19,3 C 18,4 C 0,0 C 68 % 71 % 1017,1 hPa 0,0 l/m 0,0 km/h (0 Bft) O-NO 67 0 min 13,6 C 18,4 C 0,0 km/h (0 Bft)
03.06.2019 22:40 19,7 C 19,2 C 18,7 C 19,2 C 18,3 C 0,0 C 68 % 71 % 1017,1 hPa 0,0 l/m 0,0 km/h (0 Bft) O-NO 67 0 min 13,6 C 18,3 C 0,0 km/h (0 Bft)
03.06.2019 22:45 19,5 C 19,2 C 18,7 C 19,1 C 18,2 C 0,0 C 69 % 72 % 1016,8 hPa 0,0 l/m 0,0 km/h (0 Bft) O-NO 67 0 min 13,7 C 18,2 C 0,0 km/h (0 Bft)
03.06.2019 22:50 19,3 C 19,2 C 18,6 C 18,9 C 18,2 C 0,0 C 69 % 72 % 1016,8 hPa 0,0 l/m 0,0 km/h (0 Bft) N-NO 22 0 min 13,5 C 18,2 C 0,0 km/h (0 Bft)
03.06.2019 22:55 19,3 C 19,1 C 18,5 C 18,9 C 18,1 C 0,0 C 70 % 73 % 1016,8 hPa 0,0 l/m 0,0 km/h (0 Bft) N-NO 22 0 min 13,7 C 18,1 C 0,0 km/h (0 Bft)
03.06.2019 23:00 19,1 C 19,1 C 18,4 C 18,7 C 18,0 C 0,0 C 71 % 74 % 1016,8 hPa 0,0 l/m 0,2 km/h (0 Bft) O-NO 67 0 min 13,7 C 18,0 C 2,4 km/h (1 Bft)
03.06.2019 23:05 19,1 C 19,1 C 18,3 C 18,7 C 17,9 C 0,0 C 71 % 74 % 1016,9 hPa 0,0 l/m 0,3 km/h (0 Bft) O-NO 67 0 min 13,7 C 17,9 C 0,0 km/h (0 Bft)
03.06.2019 23:10 18,8 C 19,1 C 18,1 C 18,4 C 17,7 C 0,0 C 71 % 74 % 1016,9 hPa 0,0 l/m 0,3 km/h (0 Bft) O-NO 67 0 min 13,4 C 17,7 C 0,0 km/h (0 Bft)
03.06.2019 23:15 18,7 C 19,1 C 18,0 C 18,3 C 17,5 C 0,0 C 71 % 75 % 1016,9 hPa 0,0 l/m 0,0 km/h (0 Bft) N-NO 22 0 min 13,3 C 17,5 C 0,0 km/h (0 Bft)
03.06.2019 23:20 18,6 C 19,1 C 17,9 C 18,2 C 17,3 C 0,0 C 72 % 75 % 1016,9 hPa 0,0 l/m 0,0 km/h (0 Bft) SW 225 0 min 13,4 C 17,3 C 0,0 km/h (0 Bft)
03.06.2019 23:25 18,6 C 19,1 C 17,8 C 18,0 C 16,9 C 0,0 C 72 % 76 % 1017,2 hPa 0,0 l/m 0,2 km/h (0 Bft) O-NO 67 0 min 13,4 C 16,9 C 2,7 km/h (1 Bft)
03.06.2019 23:30 18,3 C 19,1 C 17,5 C 17,8 C 16,9 C 0,0 C 73 % 76 % 1017,2 hPa 0,0 l/m 0,3 km/h (0 Bft) O-NO 67 0 min 13,4 C 16,9 C 0,0 km/h (0 Bft)
03.06.2019 23:35 18,1 C 19,1 C 17,5 C 17,7 C 16,8 C 0,0 C 74 % 76 % 1017,2 hPa 0,0 l/m 0,3 km/h (0 Bft) O-NO 67 0 min 13,4 C 16,8 C 0,0 km/h (0 Bft)
03.06.2019 23:40 18,0 C 19,1 C 17,5 C 17,6 C 16,8 C 0,0 C 74 % 77 % 1017,2 hPa 0,0 l/m 0,0 km/h (0 Bft) O-NO 67 0 min 13,3 C 16,8 C 0,0 km/h (0 Bft)
03.06.2019 23:45 18,0 C 19,0 C 17,4 C 17,6 C 16,7 C 0,0 C 74 % 76 % 1016,7 hPa 0,0 l/m 0,0 km/h (0 Bft) O-NO 67 0 min 13,3 C 16,7 C 0,0 km/h (0 Bft)
03.06.2019 23:50 17,9 C 19,1 C 17,3 C 17,4 C 16,5 C 0,0 C 74 % 77 % 1016,7 hPa 0,0 l/m 0,0 km/h (0 Bft) NW 315 0 min 13,2 C 16,5 C 0,0 km/h (0 Bft)
03.06.2019 23:55 17,7 C 19,1 C 17,2 C 17,2 C 16,2 C 0,0 C 75 % 78 % 1016,7 hPa 0,0 l/m 0,0 km/h (0 Bft) NO 45 0 min 13,2 C 16,2 C 0,0 km/h (0 Bft)
_ Min-Zeit 05:50 07:50 05:35 05:50 05:10 00:00 16:26 16:35 18:05 - 00:00 - - - 05:50 05:10 00:00
Minimum _ 13,9 C 17,4 C 13,9 C 13,6 C 13,0 C 0,0 C 34 % 40 % 1013,1 hPa - 0,0 km/h (0 Bft) - - - 11,6 C 13,0 C 0,0 km/h (0 Bft)
_ Max-Zeit 13:35 19:45 16:55 16:00 16:00 07:45 06:05 06:45 00:05 00:00 20:50 - - 12:27 09:20 16:00 20:45
Maximum _ 33,0 C 19,5 C 29,6 C 40,7 C 40,7 C 13,4 C 87 % 90 % 1017,7 hPa 0,0 l/m 6,3 km/h
SW (2 Bft)
- - 16 min 19,1 C 40,7 C 20,0 km/h
S-SO (4 Bft)
Durchschnitt _ 23,5 C 18,4 C 21,6 C 27,4 C 27,1 C 4,1 C 63 % 68 % 1015,9 hPa #0,0 l/m 0,7 km/h (0 Bft) O-NO - #12:14 h 15,1 C 27,1 C 1,4 km/h (1 Bft)
2019 www.wetterstation-wechselburg.de